Time;durP1;ratioP1;P1;durP2;ratioP2;P2;SDS_P1;SDS_P2;PMS_P1;PMS_P2;Temp;Humidity;BMP_temperature;BMP_pressure;BME280_temperature;BME280_humidity;BME280_pressure;Samples;Min_cycle;Max_cycle;Signal;HPM_P1;HPM_P2
2022/07/18 00:02:18;;;;;;;2.07;1.20;;;17.50;56.90;;;;;;5044798;28;20634;-84
2022/07/18 00:04:45;;;;;;;1.27;1.17;;;17.50;57.20;;;;;;5038197;28;20668;-85
2022/07/18 00:07:12;;;;;;;2.60;1.60;;;17.40;57.40;;;;;;5044395;28;20640;-85
2022/07/18 00:09:40;;;;;;;2.53;1.80;;;17.40;57.50;;;;;;5046047;28;20677;-85
2022/07/18 00:12:08;;;;;;;2.80;1.63;;;17.30;58.30;;;;;;5047055;28;20642;-85
2022/07/18 00:14:35;;;;;;;2.40;1.63;;;17.30;58.90;;;;;;5045960;28;20634;-85
2022/07/18 00:17:04;;;;;;;1.73;1.20;;;17.20;59.20;;;;;;5042861;28;21187;-86
2022/07/18 00:19:32;;;;;;;4.27;1.63;;;17.10;59.70;;;;;;5040886;28;20652;-86
2022/07/18 00:21:59;;;;;;;1.90;1.23;;;17.10;59.70;;;;;;5046356;28;20625;-85
2022/07/18 00:24:26;;;;;;;4.67;1.50;;;17.10;60.90;;;;;;5044253;28;20629;-85
2022/07/18 00:26:52;;;;;;;2.60;1.60;;;17.00;62.20;;;;;;5046948;28;20649;-84
2022/07/18 00:29:19;;;;;;;2.70;1.57;;;17.00;62.70;;;;;;5044923;28;20665;-85
2022/07/18 00:31:46;;;;;;;3.53;1.63;;;16.90;62.80;;;;;;5046733;28;20644;-84
2022/07/18 00:34:14;;;;;;;4.00;1.20;;;16.90;63.40;;;;;;5043750;28;20959;-85
2022/07/18 00:36:41;;;;;;;1.67;1.57;;;16.90;64.50;;;;;;5044768;28;20664;-85
2022/07/18 00:39:08;;;;;;;1.50;1.40;;;16.80;65.20;;;;;;5041693;28;20632;-85
2022/07/18 00:41:35;;;;;;;1.67;1.57;;;16.80;65.00;;;;;;5048866;28;21188;-85
2022/07/18 00:44:02;;;;;;;1.80;1.37;;;16.70;66.00;;;;;;5050093;28;20638;-85
2022/07/18 00:46:29;;;;;;;1.67;1.57;;;16.70;67.80;;;;;;5048931;28;20684;-85
2022/07/18 00:48:56;;;;;;;3.73;1.80;;;16.70;68.10;;;;;;5049448;28;20626;-86
2022/07/18 00:51:24;;;;;;;3.40;1.50;;;16.70;68.50;;;;;;5049067;28;20653;-85
2022/07/18 00:53:51;;;;;;;3.67;1.60;;;16.70;68.40;;;;;;5041450;28;20630;-85
2022/07/18 00:56:20;;;;;;;1.83;1.73;;;16.60;69.00;;;;;;5050010;28;21184;-85
2022/07/18 00:58:47;;;;;;;1.70;1.60;;;16.60;70.70;;;;;;5050908;28;21239;-85
2022/07/18 01:03:58;;;;;;;3.53;2.33;;;16.50;74.20;;;;;;5049316;28;20675;-85
2022/07/18 01:06:26;;;;;;;1.97;1.70;;;16.50;75.70;;;;;;5044174;28;21195;-85
2022/07/18 01:08:53;;;;;;;1.80;1.70;;;16.40;77.90;;;;;;5048695;28;20997;-85
2022/07/18 01:11:21;;;;;;;2.00;1.73;;;16.40;79.40;;;;;;5048820;28;20683;-85
2022/07/18 01:13:48;;;;;;;2.10;1.90;;;16.30;81.10;;;;;;5051861;28;20641;-85
2022/07/18 01:16:16;;;;;;;4.97;2.00;;;16.30;82.70;;;;;;5041387;28;21009;-85
2022/07/18 01:18:46;;;;;;;2.93;2.73;;;16.20;84.80;;;;;;5044451;28;20622;-85
2022/07/18 01:21:14;;;;;;;2.20;2.10;;;16.20;86.50;;;;;;5047350;28;21010;-85
2022/07/18 01:23:42;;;;;;;3.87;1.50;;;16.10;87.20;;;;;;5042100;28;20638;-85
2022/07/18 01:26:09;;;;;;;2.50;1.70;;;16.10;88.10;;;;;;5046360;28;20641;-85
2022/07/18 01:28:36;;;;;;;2.73;1.97;;;16.10;87.80;;;;;;5051259;28;20626;-85
2022/07/18 01:31:03;;;;;;;1.73;1.57;;;16.00;88.30;;;;;;5046761;28;20681;-84
2022/07/18 01:33:33;;;;;;;1.93;1.70;;;16.00;90.40;;;;;;5033216;28;20632;-84
2022/07/18 01:36:00;;;;;;;2.13;1.63;;;16.00;91.40;;;;;;5043508;28;20627;-85
2022/07/18 01:38:29;;;;;;;1.57;1.47;;;15.90;92.10;;;;;;5046101;28;21233;-85
2022/07/18 01:40:56;;;;;;;2.60;1.70;;;15.90;92.70;;;;;;5048277;28;21656;-84
2022/07/18 01:43:23;;;;;;;1.87;1.77;;;15.90;93.10;;;;;;5047446;28;20994;-84
2022/07/18 01:45:50;;;;;;;2.47;1.70;;;15.80;93.70;;;;;;5040430;28;21003;-84
2022/07/18 01:48:17;;;;;;;2.10;1.73;;;15.70;93.90;;;;;;5038832;28;21016;-84
2022/07/18 01:50:44;;;;;;;4.93;1.67;;;15.60;95.00;;;;;;5045135;28;21004;-85
2022/07/18 01:53:10;;;;;;;2.33;1.67;;;15.60;95.20;;;;;;5047744;28;20633;-84
2022/07/18 01:55:39;;;;;;;1.90;1.53;;;15.50;95.90;;;;;;5047947;28;20633;-84
2022/07/18 01:58:06;;;;;;;2.10;1.97;;;15.50;96.90;;;;;;5047051;28;20636;-84
2022/07/18 02:00:33;;;;;;;2.33;2.07;;;15.50;97.60;;;;;;5047104;28;21015;-84
2022/07/18 02:03:00;;;;;;;3.73;1.80;;;15.50;98.40;;;;;;5047666;28;20676;-84
2022/07/18 02:05:27;;;;;;;2.20;2.00;;;15.50;99.30;;;;;;5043395;28;21173;-84
2022/07/18 02:07:54;;;;;;;2.40;1.80;;;15.40;99.90;;;;;;5043176;28;20709;-84
2022/07/18 02:10:22;;;;;;;2.83;2.30;;;15.30;99.90;;;;;;5046143;28;20709;-84
2022/07/18 02:12:50;;;;;;;2.73;2.13;;;15.40;99.90;;;;;;5046836;28;21028;-83
2022/07/18 02:15:17;;;;;;;1.90;1.80;;;15.30;99.90;;;;;;5047798;28;20622;-83
2022/07/18 02:17:45;;;;;;;3.00;1.80;;;15.30;99.90;;;;;;5046432;28;20678;-84
2022/07/18 02:20:13;;;;;;;2.10;1.90;;;15.30;99.90;;;;;;5042534;28;20650;-83
2022/07/18 02:22:40;;;;;;;3.33;1.70;;;15.30;99.90;;;;;;5042676;28;20640;-83
2022/07/18 02:25:08;;;;;;;3.40;1.90;;;15.30;99.90;;;;;;5039946;28;20634;-83
2022/07/18 02:27:35;;;;;;;2.00;1.90;;;15.30;99.90;;;;;;5043668;28;20630;-84
2022/07/18 02:30:04;;;;;;;2.33;1.93;;;15.30;99.90;;;;;;5004980;28;1064951;-84
2022/07/18 02:32:31;;;;;;;3.07;2.50;;;15.30;99.90;;;;;;5047599;28;20196;-83
2022/07/18 02:34:58;;;;;;;2.50;2.30;;;15.20;99.90;;;;;;5047765;28;20626;-83
2022/07/18 02:37:25;;;;;;;2.60;2.13;;;15.10;99.90;;;;;;5042712;28;20881;-83
2022/07/18 02:39:52;;;;;;;2.40;2.20;;;15.20;99.90;;;;;;5045988;28;21084;-83
2022/07/18 02:42:18;;;;;;;2.93;2.40;;;15.10;99.90;;;;;;5047295;28;20632;-83
2022/07/18 02:44:46;;;;;;;2.60;2.33;;;15.10;99.90;;;;;;5042813;28;20828;-83
2022/07/18 02:47:14;;;;;;;4.03;2.40;;;15.00;99.90;;;;;;5047341;28;20633;-83
2022/07/18 02:49:41;;;;;;;8.00;2.63;;;15.00;99.90;;;;;;5048151;28;20769;-84
2022/07/18 02:52:09;;;;;;;3.20;2.17;;;15.00;99.90;;;;;;5048258;28;20636;-83
2022/07/18 02:54:37;;;;;;;2.20;2.00;;;15.00;99.90;;;;;;5043210;28;20630;-83
2022/07/18 02:57:05;;;;;;;2.67;2.47;;;14.90;99.90;;;;;;5047882;28;20618;-83
2022/07/18 02:59:32;;;;;;;3.10;2.40;;;15.00;99.90;;;;;;5040207;28;20652;-84
2022/07/18 03:01:59;;;;;;;4.00;2.90;;;14.90;99.90;;;;;;5043744;28;20709;-83
2022/07/18 03:04:27;;;;;;;6.80;2.00;;;14.90;99.90;;;;;;5044195;28;20622;-83
2022/07/18 03:06:55;;;;;;;2.93;2.40;;;14.90;99.90;;;;;;5041576;28;20637;-84
2022/07/18 03:09:22;;;;;;;2.53;2.33;;;14.90;99.90;;;;;;5047725;28;20622;-84
2022/07/18 03:11:49;;;;;;;2.57;2.23;;;14.80;99.90;;;;;;5045784;28;20672;-84
2022/07/18 03:14:15;;;;;;;3.90;2.50;;;14.80;99.90;;;;;;5042332;28;20633;-83
2022/07/18 03:16:42;;;;;;;3.10;2.57;;;14.70;99.90;;;;;;5048028;28;20630;-84
2022/07/18 03:19:09;;;;;;;2.93;2.63;;;14.70;99.90;;;;;;5042104;28;20637;-84
2022/07/18 03:21:37;;;;;;;2.00;1.90;;;14.60;99.90;;;;;;5047870;28;20673;-84
2022/07/18 03:24:05;;;;;;;2.47;2.27;;;14.60;99.90;;;;;;5037822;28;20626;-84
2022/07/18 03:26:31;;;;;;;2.33;1.87;;;14.50;99.90;;;;;;5046639;28;20626;-84
2022/07/18 03:28:58;;;;;;;5.00;2.10;;;14.50;99.90;;;;;;5048092;28;20630;-84
2022/07/18 03:31:25;;;;;;;2.00;1.90;;;14.50;99.90;;;;;;5046562;28;21161;-84
2022/07/18 03:33:52;;;;;;;2.77;2.10;;;14.50;99.90;;;;;;5047996;28;21090;-84
2022/07/18 03:36:19;;;;;;;2.00;1.90;;;14.50;99.90;;;;;;5043015;28;20627;-84
2022/07/18 03:38:47;;;;;;;2.10;1.90;;;14.40;99.90;;;;;;5039940;28;20645;-84
2022/07/18 03:41:14;;;;;;;2.73;2.53;;;14.40;99.90;;;;;;5046794;28;20682;-84
2022/07/18 03:43:41;;;;;;;5.37;2.10;;;14.40;99.90;;;;;;5043423;28;20640;-84
2022/07/18 03:46:08;;;;;;;2.07;1.97;;;14.40;99.90;;;;;;5045694;28;20634;-84
2022/07/18 03:48:35;;;;;;;2.80;2.57;;;14.40;99.90;;;;;;5044298;28;20706;-84
2022/07/18 03:51:02;;;;;;;3.33;2.30;;;14.40;99.90;;;;;;5043655;28;20670;-84
2022/07/18 03:53:29;;;;;;;4.60;2.57;;;14.40;99.90;;;;;;5046299;28;20630;-84
2022/07/18 03:55:57;;;;;;;2.27;2.17;;;14.40;99.90;;;;;;5042865;28;20663;-84
2022/07/18 03:58:24;;;;;;;2.87;2.00;;;14.30;99.90;;;;;;5034672;28;20760;-84
2022/07/18 04:00:51;;;;;;;2.37;2.10;;;14.30;99.90;;;;;;5044598;28;20658;-84
2022/07/18 04:03:18;;;;;;;2.53;2.33;;;14.30;99.90;;;;;;5041431;28;20626;-84
2022/07/18 04:05:45;;;;;;;4.67;2.63;;;14.30;99.90;;;;;;5044127;28;21285;-84
2022/07/18 04:08:12;;;;;;;2.37;2.17;;;14.30;99.90;;;;;;5046670;28;20634;-84
2022/07/18 04:10:39;;;;;;;1.90;1.80;;;14.30;99.90;;;;;;5042525;28;20678;-84
2022/07/18 04:13:09;;;;;;;2.43;2.23;;;14.30;99.90;;;;;;5043985;28;21078;-84
2022/07/18 04:15:36;;;;;;;2.43;2.23;;;14.30;99.90;;;;;;5040007;28;20677;-85
2022/07/18 04:18:03;;;;;;;3.23;2.80;;;14.30;99.90;;;;;;5039736;28;21031;-84
2022/07/18 04:20:30;;;;;;;4.40;2.47;;;14.40;99.90;;;;;;5045680;28;20656;-84
2022/07/18 04:22:59;;;;;;;3.20;2.43;;;14.40;99.90;;;;;;5042386;28;21091;-84
2022/07/18 04:25:28;;;;;;;3.00;2.47;;;14.40;99.90;;;;;;5042471;28;20630;-85
2022/07/18 04:27:56;;;;;;;2.47;2.27;;;14.40;99.90;;;;;;5044686;28;20696;-84
2022/07/18 04:30:26;;;;;;;2.73;2.53;;;14.50;99.90;;;;;;5046198;28;20678;-84
2022/07/18 04:32:54;;;;;;;2.70;2.50;;;14.50;99.90;;;;;;5041426;28;20633;-85
2022/07/18 04:35:21;;;;;;;3.40;2.37;;;14.50;99.90;;;;;;5045836;28;21343;-84
2022/07/18 04:37:47;;;;;;;3.20;2.60;;;14.50;99.90;;;;;;5044653;28;20626;-84
2022/07/18 04:40:15;;;;;;;3.37;3.07;;;14.60;99.90;;;;;;5043491;28;20650;-85
2022/07/18 04:42:42;;;;;;;3.87;3.50;;;14.70;99.90;;;;;;5046051;28;20638;-84
2022/07/18 04:45:10;;;;;;;2.73;2.53;;;14.70;99.90;;;;;;5041328;28;20729;-85
2022/07/18 04:47:38;;;;;;;3.20;2.50;;;14.80;99.90;;;;;;5045352;28;20629;-84
2022/07/18 04:50:07;;;;;;;5.33;3.00;;;14.80;99.90;;;;;;5043155;28;20650;-84
2022/07/18 04:52:38;;;;;;;2.80;2.60;;;14.90;99.90;;;;;;5043344;28;20661;-84
2022/07/18 04:55:06;;;;;;;4.90;2.80;;;15.00;99.90;;;;;;5039293;28;21208;-84
2022/07/18 04:57:34;;;;;;;3.57;2.90;;;15.00;99.90;;;;;;5041167;28;20955;-84
2022/07/18 05:00:01;;;;;;;4.70;2.57;;;15.10;99.90;;;;;;5044020;28;20657;-84
2022/07/18 05:02:27;;;;;;;2.80;2.60;;;15.20;99.90;;;;;;5039854;28;20628;-84
2022/07/18 05:04:56;;;;;;;3.40;2.90;;;15.30;99.90;;;;;;5045222;28;20625;-82
2022/07/18 05:07:23;;;;;;;4.10;3.77;;;15.40;99.90;;;;;;5045852;28;20625;-81
2022/07/18 05:09:50;;;;;;;3.07;2.80;;;15.40;99.90;;;;;;5043029;28;20662;-81
2022/07/18 05:12:18;;;;;;;5.00;2.93;;;15.40;99.90;;;;;;5041792;28;20694;-81
2022/07/18 05:14:47;;;;;;;3.07;2.87;;;15.50;99.90;;;;;;5044505;28;20638;-81
2022/07/18 05:17:14;;;;;;;4.57;2.90;;;15.50;99.90;;;;;;5039564;28;20626;-81
2022/07/18 05:19:41;;;;;;;3.37;3.10;;;15.60;99.90;;;;;;5040302;28;20631;-81
2022/07/18 05:22:09;;;;;;;3.40;3.10;;;15.60;99.90;;;;;;5034535;28;20650;-83
2022/07/18 05:24:36;;;;;;;3.47;3.20;;;15.70;99.90;;;;;;5045244;28;20723;-83
2022/07/18 05:27:03;;;;;;;2.80;2.60;;;15.70;99.90;;;;;;5042924;28;21082;-82
2022/07/18 05:29:30;;;;;;;3.63;3.33;;;15.90;99.90;;;;;;5042731;28;20729;-82
2022/07/18 05:31:57;;;;;;;3.17;2.87;;;16.00;99.90;;;;;;5039447;28;21239;-83
2022/07/18 05:34:24;;;;;;;3.43;3.13;;;16.10;99.90;;;;;;5043325;28;20625;-82
2022/07/18 05:36:51;;;;;;;5.73;3.03;;;16.20;99.90;;;;;;5045757;28;21054;-81
2022/07/18 05:39:19;;;;;;;8.47;3.87;;;16.20;99.90;;;;;;5046369;28;20724;-81
2022/07/18 05:41:46;;;;;;;3.30;3.00;;;16.30;99.90;;;;;;5044537;28;20715;-81
2022/07/18 05:44:13;;;;;;;3.83;3.53;;;16.40;99.90;;;;;;5045209;28;20625;-81
2022/07/18 05:49:20;;;;;;;3.13;2.93;;;16.60;99.90;;;;;;5048492;28;20640;-81
2022/07/18 05:51:47;;;;;;;3.63;3.40;;;16.60;99.90;;;;;;5045240;28;20682;-81
2022/07/18 05:54:18;;;;;;;3.10;2.90;;;16.80;99.90;;;;;;5045949;28;20626;-81
2022/07/18 05:56:47;;;;;;;7.53;2.87;;;16.80;99.90;;;;;;5046692;28;21218;-82
2022/07/18 05:59:14;;;;;;;4.73;3.00;;;16.90;99.90;;;;;;5044929;28;20609;-82
2022/07/18 06:01:40;;;;;;;4.27;2.40;;;16.90;99.90;;;;;;5053442;28;21268;-82
2022/07/18 06:04:07;;;;;;;3.17;2.87;;;17.10;99.90;;;;;;5045249;28;21225;-82
2022/07/18 06:06:34;;;;;;;2.93;2.73;;;17.20;99.90;;;;;;5046514;28;20635;-82
2022/07/18 06:09:01;;;;;;;2.80;2.60;;;17.20;99.90;;;;;;5047725;28;20725;-82
2022/07/18 06:11:29;;;;;;;3.70;3.07;;;17.30;99.90;;;;;;5042538;28;20681;-82
2022/07/18 06:13:58;;;;;;;3.90;2.80;;;17.50;99.90;;;;;;5044018;28;20627;-82
2022/07/18 06:16:25;;;;;;;3.50;3.10;;;17.60;99.90;;;;;;5046562;28;20617;-82
2022/07/18 06:18:51;;;;;;;4.17;2.90;;;17.60;99.90;;;;;;5043720;28;20724;-82
2022/07/18 06:21:18;;;;;;;2.83;2.63;;;17.80;99.90;;;;;;5045212;28;20642;-82
2022/07/18 06:23:45;;;;;;;6.43;3.13;;;17.90;99.90;;;;;;5041804;28;20688;-82
2022/07/18 06:26:12;;;;;;;3.93;2.70;;;18.10;99.90;;;;;;5047139;28;20614;-82
2022/07/18 06:28:39;;;;;;;3.87;3.30;;;18.20;99.90;;;;;;5044986;28;20622;-82
2022/07/18 06:31:08;;;;;;;6.03;2.90;;;18.30;99.90;;;;;;5042347;28;21023;-82
2022/07/18 06:33:35;;;;;;;4.23;3.00;;;18.40;99.90;;;;;;5040369;28;20625;-82
2022/07/18 06:36:01;;;;;;;7.53;2.90;;;18.50;99.80;;;;;;5040435;28;20623;-82
2022/07/18 06:38:28;;;;;;;4.80;3.57;;;18.60;99.40;;;;;;5057412;28;20646;-82
2022/07/18 06:40:55;;;;;;;5.20;3.17;;;18.70;98.70;;;;;;5048112;28;20649;-82
2022/07/18 06:43:22;;;;;;;4.10;3.20;;;18.90;97.60;;;;;;5046141;28;20642;-82
2022/07/18 06:45:50;;;;;;;3.40;2.77;;;18.90;97.60;;;;;;5043744;28;20641;-82
2022/07/18 06:48:18;;;;;;;2.50;2.30;;;19.00;97.70;;;;;;5046703;28;21039;-82
2022/07/18 06:50:45;;;;;;;3.37;2.40;;;19.20;97.10;;;;;;5044377;28;20641;-82
2022/07/18 06:53:12;;;;;;;3.83;3.10;;;19.30;96.70;;;;;;5041591;28;21039;-83
2022/07/18 06:55:39;;;;;;;2.90;2.07;;;19.40;96.30;;;;;;5044627;28;21207;-82
2022/07/18 06:58:09;;;;;;;2.97;2.67;;;19.50;95.80;;;;;;5042276;28;20638;-82
2022/07/18 07:00:36;;;;;;;4.30;2.70;;;19.70;96.20;;;;;;5042487;28;20983;-83
2022/07/18 07:03:03;;;;;;;3.13;2.43;;;19.80;96.10;;;;;;5040693;28;20615;-82
2022/07/18 07:05:32;;;;;;;3.07;2.87;;;19.90;95.40;;;;;;5041795;28;21005;-82
2022/07/18 07:07:59;;;;;;;4.13;2.80;;;20.00;95.50;;;;;;5046142;28;20634;-82
2022/07/18 07:10:26;;;;;;;2.83;2.60;;;20.00;95.20;;;;;;5047099;28;20990;-82
2022/07/18 07:12:53;;;;;;;3.47;2.97;;;20.10;95.20;;;;;;5044479;28;20677;-82
2022/07/18 07:15:21;;;;;;;2.90;2.60;;;20.20;94.80;;;;;;5050899;28;21370;-82
2022/07/18 07:17:48;;;;;;;3.20;2.90;;;20.40;94.90;;;;;;5050849;28;21244;-84
2022/07/18 07:20:18;;;;;;;3.57;2.43;;;20.50;95.00;;;;;;5048464;28;20631;-83
2022/07/18 07:22:48;;;;;;;3.07;2.63;;;20.60;94.60;;;;;;5048325;28;20788;-83
2022/07/18 07:25:16;;;;;;;4.27;3.20;;;20.70;94.60;;;;;;5045447;28;20631;-83
2022/07/18 07:27:43;;;;;;;2.53;2.20;;;20.70;94.10;;;;;;5048948;28;20650;-82
2022/07/18 07:30:12;;;;;;;4.00;3.30;;;20.90;94.10;;;;;;5046180;28;20637;-83
2022/07/18 07:32:41;;;;;;;2.83;2.63;;;21.00;94.20;;;;;;5043471;28;20679;-83
2022/07/18 07:35:12;;;;;;;3.00;2.30;;;21.20;93.20;;;;;;5048996;28;20634;-81
2022/07/18 07:37:39;;;;;;;2.50;2.30;;;21.20;93.10;;;;;;5043909;28;20633;-83
2022/07/18 07:40:08;;;;;;;7.73;3.23;;;21.30;93.20;;;;;;5039553;28;20636;-81
2022/07/18 07:42:35;;;;;;;4.33;2.60;;;21.40;93.20;;;;;;5047050;28;20684;-81
2022/07/18 07:45:02;;;;;;;4.80;2.50;;;21.40;92.60;;;;;;5045324;28;20622;-82
2022/07/18 07:47:29;;;;;;;7.53;2.57;;;21.60;93.00;;;;;;5044808;28;20630;-83
2022/07/18 07:49:56;;;;;;;4.50;2.73;;;21.70;92.40;;;;;;5044207;28;20993;-83
2022/07/18 07:52:24;;;;;;;4.60;3.00;;;21.70;92.10;;;;;;5041091;28;20684;-82
2022/07/18 07:54:51;;;;;;;5.30;3.13;;;21.90;91.60;;;;;;5039014;28;21199;-83
2022/07/18 07:57:19;;;;;;;4.57;3.47;;;22.00;91.60;;;;;;5038765;28;20638;-83
2022/07/18 07:59:46;;;;;;;3.00;2.80;;;22.00;91.60;;;;;;5035118;28;21605;-83
2022/07/18 08:02:14;;;;;;;2.73;2.63;;;22.20;91.30;;;;;;5045443;28;20646;-83
2022/07/18 08:04:41;;;;;;;3.57;3.27;;;22.40;90.40;;;;;;5039331;28;20628;-83
2022/07/18 08:07:09;;;;;;;3.30;2.87;;;22.40;89.00;;;;;;5040339;28;20622;-83
2022/07/18 08:09:36;;;;;;;3.67;3.37;;;22.60;87.20;;;;;;5043317;28;20725;-82
2022/07/18 08:12:04;;;;;;;3.33;2.90;;;22.70;88.50;;;;;;5045067;28;20673;-82
2022/07/18 08:14:33;;;;;;;5.47;2.70;;;22.80;88.50;;;;;;5042497;28;20642;-82
2022/07/18 08:17:00;;;;;;;4.00;3.20;;;22.90;88.50;;;;;;5040963;28;20630;-88
2022/07/18 08:19:26;;;;;;;4.67;2.57;;;23.00;86.60;;;;;;5035412;28;21012;-82
2022/07/18 08:21:53;;;;;;;3.70;3.03;;;23.20;85.60;;;;;;5036079;28;20708;-82
2022/07/18 08:24:20;;;;;;;5.83;2.93;;;23.30;82.90;;;;;;5037716;28;20636;-82
2022/07/18 08:26:47;;;;;;;5.17;3.27;;;23.50;82.80;;;;;;5042879;28;20633;-82
2022/07/18 08:29:14;;;;;;;4.13;3.40;;;23.50;83.10;;;;;;5044074;28;20641;-82
2022/07/18 08:31:42;;;;;;;5.83;3.23;;;23.60;82.70;;;;;;5042277;28;20678;-82
2022/07/18 08:34:09;;;;;;;5.37;3.30;;;23.80;81.90;;;;;;5044147;28;21194;-82
2022/07/18 08:36:35;;;;;;;3.20;2.90;;;23.90;81.80;;;;;;5044395;28;20642;-82
2022/07/18 08:39:02;;;;;;;3.40;3.10;;;24.00;81.90;;;;;;5044574;28;20618;-82
2022/07/18 08:41:30;;;;;;;3.77;2.40;;;24.20;80.90;;;;;;5044612;28;20657;-82
2022/07/18 08:43:57;;;;;;;1.93;1.70;;;24.20;79.30;;;;;;5042735;28;20744;-82
2022/07/18 08:46:24;;;;;;;2.07;1.87;;;24.30;78.30;;;;;;5044952;28;20627;-82
2022/07/18 08:48:55;;;;;;;4.97;2.43;;;24.40;77.60;;;;;;5043922;28;20621;-82
2022/07/18 08:51:23;;;;;;;6.67;2.03;;;24.50;76.40;;;;;;5044574;28;20669;-82
2022/07/18 08:53:51;;;;;;;4.10;2.13;;;24.70;75.10;;;;;;5035364;28;20709;-82
2022/07/18 08:56:18;;;;;;;2.33;2.13;;;24.80;74.30;;;;;;5045294;28;20626;-82
2022/07/18 08:58:45;;;;;;;3.30;1.90;;;24.90;74.30;;;;;;5040089;28;20626;-82
2022/07/18 09:01:12;;;;;;;6.40;2.80;;;25.00;73.70;;;;;;5048861;28;20653;-81
2022/07/18 09:03:39;;;;;;;2.50;2.30;;;25.10;73.80;;;;;;5047173;28;20629;-82
2022/07/18 09:06:10;;;;;;;1.87;1.63;;;25.20;72.70;;;;;;5042247;28;20626;-82
2022/07/18 09:08:38;;;;;;;5.43;2.00;;;25.40;71.40;;;;;;5045620;28;20618;-82
2022/07/18 09:11:10;;;;;;;8.57;2.17;;;25.50;69.60;;;;;;5046296;28;20650;-82
2022/07/18 09:13:38;;;;;;;3.60;2.10;;;25.50;69.30;;;;;;5042662;28;20649;-81
2022/07/18 09:16:07;;;;;;;2.83;1.73;;;25.60;69.10;;;;;;5042485;28;20626;-82
2022/07/18 09:18:35;;;;;;;3.60;2.07;;;25.70;68.80;;;;;;5042159;28;20624;-81
2022/07/18 09:21:04;;;;;;;2.93;1.90;;;25.90;66.30;;;;;;5044709;28;20646;-82
2022/07/18 09:23:34;;;;;;;4.00;2.33;;;26.00;65.50;;;;;;5047247;28;20605;-81
2022/07/18 09:26:02;;;;;;;2.60;1.60;;;26.10;63.40;;;;;;5043127;28;21039;-82
2022/07/18 09:28:30;;;;;;;3.40;2.43;;;26.30;61.50;;;;;;5043880;28;20656;-82
2022/07/18 09:30:59;;;;;;;2.10;1.80;;;26.40;61.90;;;;;;5045536;28;20664;-82
2022/07/18 09:33:26;;;;;;;2.30;1.47;;;26.50;60.90;;;;;;5038043;28;20724;-82
2022/07/18 09:35:54;;;;;;;3.43;1.73;;;26.60;61.80;;;;;;5042063;28;20729;-82
2022/07/18 09:38:23;;;;;;;2.67;2.07;;;26.80;60.00;;;;;;5046529;28;20641;-81
2022/07/18 09:40:52;;;;;;;2.17;1.90;;;26.90;59.70;;;;;;5046104;28;21215;-82
2022/07/18 09:43:23;;;;;;;1.83;1.70;;;27.00;59.10;;;;;;5047000;28;20630;-81
2022/07/18 09:45:51;;;;;;;2.80;1.70;;;27.10;56.90;;;;;;5024780;28;21263;-81
2022/07/18 09:48:21;;;;;;;2.70;1.50;;;27.20;55.00;;;;;;5044380;28;20642;-81
2022/07/18 09:50:52;;;;;;;2.80;2.20;;;27.20;55.20;;;;;;5044400;28;20661;-82
2022/07/18 09:53:25;;;;;;;3.43;2.00;;;27.30;55.30;;;;;;5047070;28;20665;-81
2022/07/18 09:55:54;;;;;;;1.87;1.77;;;27.40;55.30;;;;;;5045570;28;20626;-82
2022/07/18 09:58:25;;;;;;;2.70;2.10;;;27.60;54.70;;;;;;5044193;28;20633;-82
2022/07/18 10:00:54;;;;;;;1.60;1.50;;;27.70;52.90;;;;;;5045665;28;20648;-82
2022/07/18 10:03:23;;;;;;;3.60;1.70;;;27.70;52.40;;;;;;5045013;28;20964;-81
2022/07/18 10:05:52;;;;;;;1.73;1.60;;;27.70;52.40;;;;;;5048175;28;20622;-82
2022/07/18 10:08:21;;;;;;;1.97;1.70;;;27.80;52.40;;;;;;5043342;28;20626;-82
2022/07/18 10:10:51;;;;;;;2.47;2.03;;;27.90;52.50;;;;;;5043408;28;20997;-82
2022/07/18 10:13:21;;;;;;;2.10;2.00;;;27.90;52.60;;;;;;5043334;28;21219;-81
2022/07/18 10:15:50;;;;;;;2.03;1.93;;;28.00;51.60;;;;;;5044752;28;20632;-81
2022/07/18 10:18:18;;;;;;;2.43;1.93;;;28.00;50.60;;;;;;5044327;28;20630;-83
2022/07/18 10:20:49;;;;;;;2.40;2.20;;;28.10;50.50;;;;;;5045220;28;20625;-81
2022/07/18 10:23:19;;;;;;;3.47;2.30;;;28.20;51.10;;;;;;5040791;28;20630;-81
2022/07/18 10:26:04;;;;;;;1.93;1.73;;;28.30;50.50;;;;;;5040259;28;20652;-81
2022/07/18 10:28:33;;;;;;;2.13;1.90;;;28.40;51.80;;;;;;5040909;28;20614;-82
2022/07/18 10:31:15;;;;;;;3.00;1.80;;;28.60;51.90;;;;;;5045659;28;20661;-82
2022/07/18 10:33:45;;;;;;;2.23;1.90;;;28.80;51.20;;;;;;5041895;28;20681;-82
2022/07/18 10:36:14;;;;;;;3.73;3.17;;;28.90;49.90;;;;;;5042208;28;20641;-83
2022/07/18 10:39:05;;;;;;;1.77;1.57;;;29.10;51.10;;;;;;5043592;28;20633;-83
2022/07/18 10:41:32;;;;;;;1.87;1.57;;;29.40;50.00;;;;;;5043131;28;20652;-82
2022/07/18 10:44:00;;;;;;;1.60;1.50;;;29.50;48.00;;;;;;5046339;28;20637;-83
2022/07/18 10:47:04;;;;;;;2.07;1.97;;;29.60;47.90;;;;;;5044821;28;20630;-83
2022/07/18 10:50:05;;;;;;;2.10;1.87;;;29.80;48.30;;;;;;5044135;28;20646;-82
2022/07/18 10:52:58;;;;;;;1.90;1.80;;;30.10;49.40;;;;;;5045839;28;20765;-82
2022/07/18 10:55:32;;;;;;;2.53;1.70;;;30.40;47.50;;;;;;5044494;28;21184;-82
2022/07/18 10:58:19;;;;;;;3.50;1.70;;;30.70;46.90;;;;;;5042844;28;21259;-82
2022/07/18 11:00:51;;;;;;;3.87;1.70;;;30.90;45.30;;;;;;5044358;28;20683;-83
2022/07/18 11:03:27;;;;;;;1.67;1.57;;;31.20;45.50;;;;;;5045163;28;20753;-83
2022/07/18 11:05:57;;;;;;;2.23;1.80;;;31.40;44.20;;;;;;5041195;28;20636;-82
2022/07/18 11:08:25;;;;;;;2.50;2.10;;;31.60;42.90;;;;;;5045302;28;20741;-83
2022/07/18 11:11:12;;;;;;;1.60;1.50;;;31.70;42.00;;;;;;5041349;28;20720;-83
2022/07/18 11:13:43;;;;;;;2.70;1.67;;;31.60;41.80;;;;;;5043627;28;21295;-82
2022/07/18 11:16:13;;;;;;;8.00;2.03;;;31.90;41.70;;;;;;5038916;28;20626;-83
2022/07/18 11:19:18;;;;;;;1.80;1.70;;;31.90;40.60;;;;;;5035636;28;20658;-83
2022/07/18 11:21:46;;;;;;;2.00;1.90;;;32.10;40.70;;;;;;5035692;28;20688;-83
2022/07/18 11:24:14;;;;;;;5.23;2.13;;;32.20;41.70;;;;;;5046950;28;20657;-83
2022/07/18 11:26:46;;;;;;;1.70;1.60;;;32.30;39.90;;;;;;5038449;28;20684;-82
2022/07/18 11:29:14;;;;;;;2.50;2.30;;;32.30;39.70;;;;;;5044771;28;20625;-82
2022/07/18 11:31:46;;;;;;;1.93;1.73;;;32.50;40.50;;;;;;5042688;28;20637;-82
2022/07/18 11:34:14;;;;;;;2.73;1.97;;;32.90;40.00;;;;;;5043536;28;20673;-83
2022/07/18 11:36:43;;;;;;;2.20;1.60;;;33.20;40.30;;;;;;5043097;28;20621;-83
2022/07/18 11:39:12;;;;;;;1.97;1.87;;;33.60;38.70;;;;;;5046143;28;20645;-82
2022/07/18 11:41:42;;;;;;;3.33;2.07;;;33.70;37.40;;;;;;5045909;28;20748;-82
2022/07/18 11:44:20;;;;;;;1.70;1.60;;;34.00;38.60;;;;;;5039286;28;20661;-82
2022/07/18 11:46:48;;;;;;;2.13;1.67;;;34.40;36.30;;;;;;5038798;28;20632;-82
2022/07/18 11:49:15;;;;;;;2.73;1.73;;;34.60;37.50;;;;;;5046222;28;20652;-83
2022/07/18 11:51:44;;;;;;;2.03;1.83;;;34.90;36.30;;;;;;5042083;28;20633;-82
2022/07/18 11:54:12;;;;;;;5.30;1.90;;;35.10;35.00;;;;;;5033790;28;20688;-80
2022/07/18 11:56:48;;;;;;;2.97;2.20;;;35.10;34.70;;;;;;5042830;28;20609;-80
2022/07/18 11:59:15;;;;;;;2.33;1.50;;;35.20;33.50;;;;;;5040373;28;20711;-82
2022/07/18 12:01:44;;;;;;;1.70;1.60;;;35.10;33.50;;;;;;5039657;28;20700;-84
2022/07/18 12:04:19;;;;;;;1.63;1.47;;;35.30;32.50;;;;;;5044111;28;21053;-81
2022/07/18 12:06:47;;;;;;;4.60;1.73;;;35.40;32.30;;;;;;5040465;28;20644;-81
2022/07/18 12:09:26;;;;;;;3.57;2.03;;;35.70;32.30;;;;;;5040064;28;20985;-81
2022/07/18 12:11:53;;;;;;;1.80;1.70;;;35.70;31.30;;;;;;5041882;28;20605;-83
2022/07/18 12:14:20;;;;;;;4.63;1.90;;;35.90;31.40;;;;;;5042567;28;21289;-83
2022/07/18 12:16:57;;;;;;;1.90;1.80;;;36.00;32.20;;;;;;5043169;28;20634;-83
2022/07/18 12:19:34;;;;;;;2.80;1.70;;;36.00;31.40;;;;;;5044438;28;20194;-81
2022/07/18 12:22:06;;;;;;;3.10;2.30;;;36.20;32.30;;;;;;5043201;28;20218;-83
2022/07/18 12:24:35;;;;;;;3.90;1.80;;;36.30;32.20;;;;;;5043741;28;20775;-83
2022/07/18 12:27:19;;;;;;;1.80;1.63;;;36.40;31.60;;;;;;5041642;28;20227;-83
2022/07/18 12:29:58;;;;;;;5.90;2.10;;;36.30;31.10;;;;;;5034432;28;20213;-82
2022/07/18 12:32:26;;;;;;;4.53;1.87;;;36.50;31.30;;;;;;5042928;28;20270;-82
2022/07/18 12:35:00;;;;;;;2.17;1.97;;;36.30;30.90;;;;;;5046709;28;20605;-82
2022/07/18 12:37:29;;;;;;;1.83;1.60;;;36.60;30.70;;;;;;5049745;28;20218;-82
2022/07/18 12:40:00;;;;;;;6.47;1.90;;;37.00;31.00;;;;;;5052268;28;20258;-83
2022/07/18 12:42:32;;;;;;;1.92;1.60;;;36.80;30.70;;;;;;5056030;28;20199;-81
2022/07/18 12:44:59;;;;;;;1.50;1.40;;;36.90;30.00;;;;;;5042964;28;20535;-81
2022/07/18 12:47:26;;;;;;;1.80;1.70;;;37.10;29.30;;;;;;5047617;28;20205;-80
2022/07/18 12:49:53;;;;;;;3.55;1.90;;;37.30;29.00;;;;;;5045368;28;20567;-81
2022/07/18 12:52:21;;;;;;;1.80;1.70;;;37.40;28.90;;;;;;5049154;28;20665;-81
2022/07/18 12:54:49;;;;;;;2.38;1.60;;;37.60;29.10;;;;;;5045470;28;20588;-84
2022/07/18 12:57:15;;;;;;;1.70;1.60;;;38.10;29.70;;;;;;5045632;28;20203;-81
2022/07/18 12:59:43;;;;;;;2.47;1.80;;;38.40;29.20;;;;;;5039191;28;20214;-83
2022/07/18 13:02:10;;;;;;;2.17;1.77;;;38.80;30.00;;;;;;5046739;28;20219;-81